Time;durP1;ratioP1;P1;durP2;ratioP2;P2;SDS_P1;SDS_P2;PMS_P1;PMS_P2;Temp;Humidity;BMP_temperature;BMP_pressure;BME280_temperature;BME280_humidity;BME280_pressure;Samples;Min_cycle;Max_cycle;Signal;HPM_P1;HPM_P2
2022/10/15 00:00:40;;;;;;;53.60;34.90;;;;;;;10.26;82.41;98498.73;421888;1295;110376;-40
2022/10/15 00:11:06;;;;;;;64.20;37.70;;;;;;;10.11;82.32;98495.41;421610;1296;110752;-40
2022/10/15 00:21:15;;;;;;;68.50;40.70;;;;;;;9.91;82.41;98489.08;421900;1296;97868;-41
2022/10/15 00:31:23;;;;;;;69.40;40.30;;;;;;;9.77;82.80;98477.25;422024;1295;106901;-41
2022/10/15 00:41:30;;;;;;;70.50;42.00;;;;;;;9.75;83.28;98466.60;422138;1296;97499;-41
2022/10/15 00:51:38;;;;;;;80.00;45.10;;;;;;;9.77;83.45;98465.15;421991;1295;110780;-39
2022/10/15 01:01:45;;;;;;;78.00;42.40;;;;;;;9.77;83.78;98458.40;422563;1276;109451;-38
2022/10/15 01:11:55;;;;;;;77.40;45.20;;;;;;;9.76;84.07;98455.79;421960;1295;97781;-41
2022/10/15 01:22:01;;;;;;;78.60;46.30;;;;;;;9.77;84.00;98442.64;422316;1295;108786;-41
2022/10/15 01:32:11;;;;;;;77.60;42.70;;;;;;;9.81;84.40;98434.23;422323;1294;96669;-41
2022/10/15 01:42:24;;;;;;;71.90;44.50;;;;;;;9.88;84.61;98422.92;422351;1292;109810;-41
2022/10/15 01:52:36;;;;;;;65.10;39.90;;;;;;;9.91;84.69;98423.62;422014;1296;107767;-41
2022/10/15 02:02:43;;;;;;;67.90;42.80;;;;;;;9.87;84.53;98417.15;422394;1291;96680;-40
2022/10/15 02:12:48;;;;;;;67.00;40.70;;;;;;;9.80;84.57;98416.05;422138;1295;107525;-41
2022/10/15 02:22:56;;;;;;;69.80;43.10;;;;;;;9.76;84.83;98410.48;422200;1288;98008;-40
2022/10/15 02:33:04;;;;;;;69.90;40.20;;;;;;;9.80;84.96;98400.63;422511;1292;110384;-41
2022/10/15 02:43:11;;;;;;;70.70;39.30;;;;;;;9.74;84.92;98391.15;422187;1295;108319;-41
2022/10/15 02:53:18;;;;;;;70.30;41.80;;;;;;;9.65;85.00;98381.10;422310;1295;97473;-41
2022/10/15 03:03:26;;;;;;;70.40;41.70;;;;;;;9.52;85.02;98376.45;422023;1294;107281;-40
2022/10/15 03:13:37;;;;;;;72.70;42.40;;;;;;;9.41;85.14;98368.84;422355;1295;96830;-39
2022/10/15 03:23:44;;;;;;;63.80;38.40;;;;;;;9.29;85.25;98359.27;422509;1295;110657;-39
2022/10/15 03:33:51;;;;;;;73.10;42.60;;;;;;;9.22;85.20;98356.40;421651;1294;108614;-40
2022/10/15 03:44:02;;;;;;;77.80;44.80;;;;;;;9.16;85.54;98352.42;422503;1285;97478;-41
2022/10/15 03:54:09;;;;;;;69.60;42.20;;;;;;;9.21;85.61;98351.58;422142;1294;107946;-40
2022/10/15 04:04:16;;;;;;;63.40;40.40;;;;;;;9.29;85.73;98337.33;422117;1291;97257;-40
2022/10/15 04:14:23;;;;;;;67.40;41.10;;;;;;;9.37;85.60;98326.89;422272;1294;110217;-40
2022/10/15 04:24:30;;;;;;;70.70;41.00;;;;;;;9.34;85.60;98315.86;422380;1294;107475;-38
2022/10/15 04:34:38;;;;;;;62.90;40.90;;;;;;;9.30;85.63;98317.44;422297;1288;97834;-40
2022/10/15 04:44:45;;;;;;;68.60;40.70;;;;;;;9.25;85.58;98306.10;422313;1286;108573;-40
2022/10/15 04:54:52;;;;;;;69.80;41.10;;;;;;;9.24;85.49;98293.73;422393;1294;97505;-40
2022/10/15 05:05:00;;;;;;;69.00;41.50;;;;;;;9.22;85.63;98298.27;422445;1294;109464;-41
2022/10/15 05:15:09;;;;;;;69.60;42.20;;;;;;;9.29;85.67;98295.90;421779;1295;109342;-40
2022/10/15 05:25:16;;;;;;;69.70;41.60;;;;;;;9.33;85.55;98300.77;422408;1294;97225;-40
2022/10/15 05:35:23;;;;;;;63.70;40.00;;;;;;;9.41;85.72;98300.11;422544;1294;109336;-41
2022/10/15 05:45:30;;;;;;;63.90;39.00;;;;;;;9.52;85.82;98297.95;422409;1289;96664;-41
2022/10/15 05:55:38;;;;;;;69.20;39.70;;;;;;;9.68;85.93;98305.15;422318;1294;109627;-41
2022/10/15 06:05:45;;;;;;;59.00;37.90;;;;;;;9.83;85.98;98313.23;422463;1294;107131;-41
2022/10/15 06:15:52;;;;;;;69.60;40.60;;;;;;;10.08;86.23;98311.69;422312;1294;97896;-41
2022/10/15 06:26:01;;;;;;;64.40;41.40;;;;;;;10.75;86.53;98310.52;422284;1294;110883;-41
2022/10/15 06:36:09;;;;;;;54.30;35.30;;;;;;;11.41;86.27;98311.84;422441;1289;96582;-40
2022/10/15 06:46:16;;;;;;;61.80;36.60;;;;;;;11.68;85.96;98311.98;422486;1288;110209;-40
2022/10/15 06:56:23;;;;;;;62.60;34.60;;;;;;;11.91;85.79;98315.06;422415;1294;111460;-40
2022/10/15 07:06:29;;;;;;;50.90;32.90;;;;;;;12.32;85.77;98322.45;422552;1295;97898;-40
2022/10/15 07:16:38;;;;;;;56.50;33.00;;;;;;;12.97;85.89;98317.37;421974;1294;107715;-41
2022/10/15 07:26:47;;;;;;;54.70;35.10;;;;;;;13.31;85.06;98321.45;422433;1288;97876;-40
2022/10/15 07:36:54;;;;;;;46.00;28.80;;;;;;;13.50;84.70;98323.38;422394;1295;97949;-41
2022/10/15 07:47:01;;;;;;;36.00;24.70;;;;;;;13.97;84.44;98319.61;422377;1294;108518;-41
2022/10/15 08:07:15;;;;;;;57.60;29.50;;;;;;;15.08;83.03;98328.10;422604;1294;111256;-41
2022/10/15 08:17:22;;;;;;;42.70;27.00;;;;;;;15.82;81.93;98329.86;422433;1288;107099;-41
2022/10/15 08:27:29;;;;;;;35.10;26.60;;;;;;;15.77;80.48;98338.79;421751;1287;401016;-41
2022/10/15 08:37:37;;;;;;;31.60;21.90;;;;;;;16.01;80.00;98353.61;422030;1294;110685;-40
2022/10/15 08:57:58;;;;;;;35.90;24.90;;;;;;;16.54;78.59;98358.58;422510;1294;97481;-40
2022/10/15 09:08:04;;;;;;;37.40;23.90;;;;;;;16.66;77.37;98359.76;422659;1294;110192;-40
2022/10/15 09:18:12;;;;;;;33.60;23.40;;;;;;;16.62;76.04;98355.71;422469;1294;106494;-40
2022/10/15 09:28:25;;;;;;;46.70;26.00;;;;;;;16.58;74.66;98367.85;422427;1295;97898;-41
2022/10/15 09:38:38;;;;;;;30.10;22.20;;;;;;;16.67;74.35;98370.42;422087;1291;109763;-43
2022/10/15 09:48:51;;;;;;;30.80;23.50;;;;;;;16.97;74.32;98371.39;422213;1286;105949;-40
2022/10/15 09:58:59;;;;;;;32.80;23.90;;;;;;;16.74;74.03;98377.66;422701;1294;97954;-40
2022/10/15 10:09:16;;;;;;;27.80;22.90;;;;;;;16.55;73.78;98381.74;422702;1294;109922;-39
2022/10/15 10:19:24;;;;;;;28.40;20.70;;;;;;;16.60;73.38;98380.55;422593;1291;107395;-40
2022/10/15 10:29:34;;;;;;;30.70;22.10;;;;;;;16.58;72.85;98384.40;422455;1295;97918;-41
2022/10/15 10:49:49;;;;;;;;;;;;;;;16.44;72.89;98381.30;422576;1288;106527;-41
2022/10/15 10:59:57;;;;;;;29.80;21.40;;;;;;;16.39;72.89;98376.73;422395;1294;97588;-39
2022/10/15 11:10:02;;;;;;;35.10;22.90;;;;;;;16.45;72.80;98374.48;422586;1294;109738;-40
2022/10/15 11:20:20;;;;;;;29.90;21.90;;;;;;;16.83;73.04;98369.49;422620;1288;108146;-39
2022/10/15 11:30:47;;;;;;;24.50;17.40;;;;;;;17.43;72.14;98369.34;422539;1291;97860;-39
2022/10/15 11:40:59;;;;;;;27.80;16.70;;;;;;;17.51;70.62;98367.88;422573;1288;97883;-40
2022/10/15 11:51:08;;;;;;;19.30;15.30;;;;;;;17.34;70.00;98362.36;422308;1294;110499;-40
2022/10/15 12:01:14;;;;;;;19.80;13.70;;;;;;;17.27;69.02;98363.59;422547;1288;107506;-40
2022/10/15 12:11:23;;;;;;;19.60;14.40;;;;;;;17.26;68.87;98363.37;422661;1295;97877;-40
2022/10/15 12:42:02;;;;;;;15.20;12.50;;;;;;;17.61;67.50;98340.31;422417;1293;108888;-40
2022/10/15 12:52:40;;;;;;;20.70;13.00;;;;;;;17.45;66.45;98339.39;422400;1294;97861;-41
2022/10/15 13:02:49;;;;;;;15.20;12.20;;;;;;;17.31;66.18;98344.86;422429;1295;97905;-40
2022/10/15 13:12:59;;;;;;;21.40;11.60;;;;;;;17.31;65.57;98350.90;422544;1287;111575;-41
2022/10/15 13:33:39;;;;;;;17.30;11.10;;;;;;;17.12;64.59;98349.06;422378;1286;97876;-42
2022/10/15 13:43:51;;;;;;;17.30;11.20;;;;;;;16.88;63.54;98344.15;422654;1292;110309;-40
2022/10/15 13:53:59;;;;;;;19.40;12.70;;;;;;;16.69;63.34;98344.32;422725;1289;107220;-41
2022/10/15 14:04:17;;;;;;;21.50;11.90;;;;;;;16.57;64.25;98350.08;422464;1289;98590;-41
2022/10/15 14:14:29;;;;;;;15.30;11.30;;;;;;;16.41;64.18;98352.77;422231;1295;110819;-40
2022/10/15 14:24:37;;;;;;;17.90;11.90;;;;;;;16.31;64.55;98343.37;422438;1295;108843;-42
2022/10/15 14:34:44;;;;;;;18.90;12.30;;;;;;;16.29;64.97;98342.56;422573;1287;97607;-40
2022/10/15 14:55:05;;;;;;;21.30;15.00;;;;;;;16.19;64.73;98345.98;421918;1295;107653;-40
2022/10/15 15:05:21;;;;;;;17.60;12.90;;;;;;;16.07;65.23;98350.66;422729;1296;96610;-40
2022/10/15 15:15:27;;;;;;;20.10;14.80;;;;;;;15.92;65.54;98360.25;422420;1294;97487;-40
2022/10/15 15:25:35;;;;;;;20.90;13.80;;;;;;;15.89;65.65;98368.05;421741;1297;110310;-40
2022/10/15 15:35:49;;;;;;;24.60;15.10;;;;;;;15.83;65.72;98361.02;422080;1288;109317;-41
2022/10/15 15:45:57;;;;;;;21.30;14.40;;;;;;;15.64;65.79;98349.90;421998;1298;97759;-40
2022/10/15 15:56:05;;;;;;;47.30;24.60;;;;;;;15.33;66.17;98364.65;422129;1296;109099;-40
2022/10/15 16:06:12;;;;;;;33.00;19.60;;;;;;;15.05;66.56;98388.19;422213;1288;107872;-39
2022/10/15 16:16:20;;;;;;;34.70;21.60;;;;;;;14.88;66.72;98409.39;422103;1301;97963;-40
2022/10/15 16:26:27;;;;;;;22.50;14.30;;;;;;;14.85;66.97;98419.98;421775;1296;97988;-41
2022/10/15 16:46:41;;;;;;;23.80;16.00;;;;;;;14.92;67.00;98436.36;421696;1302;97911;-40
2022/10/15 17:06:58;;;;;;;25.40;16.40;;;;;;;14.80;67.19;98450.84;422182;1296;110911;-40
2022/10/15 17:27:12;;;;;;;23.80;15.50;;;;;;;14.70;67.31;98460.88;422062;1296;97482;-41
2022/10/15 17:37:19;;;;;;;18.30;12.00;;;;;;;14.67;67.25;98463.52;422102;1296;110196;-39
2022/10/15 17:47:27;;;;;;;15.60;11.40;;;;;;;14.65;67.31;98483.35;421907;1293;109052;-40
2022/10/15 17:57:34;;;;;;;19.40;12.30;;;;;;;14.65;67.56;98498.63;422071;1301;97913;-40
2022/10/15 18:07:42;;;;;;;17.20;11.80;;;;;;;14.56;67.71;98507.58;422394;1301;110361;-40
2022/10/15 18:17:49;;;;;;;21.50;13.30;;;;;;;14.44;67.93;98516.17;421972;1295;107613;-40
2022/10/15 18:27:56;;;;;;;20.10;10.00;;;;;;;14.36;68.10;98530.31;421781;1289;97536;-41
2022/10/15 18:38:04;;;;;;;14.00;9.10;;;;;;;14.32;68.38;98538.11;421934;1296;108074;-41
2022/10/15 18:48:11;;;;;;;20.70;10.90;;;;;;;14.26;68.60;98552.11;422074;1296;97973;-38
2022/10/15 18:58:18;;;;;;;15.40;10.90;;;;;;;14.12;68.84;98557.27;421915;1293;97510;-39
2022/10/15 19:08:27;;;;;;;19.50;9.60;;;;;;;13.97;69.28;98559.96;422269;1289;110668;-39
2022/10/15 19:18:36;;;;;;;17.00;10.20;;;;;;;13.89;69.73;98560.58;421788;1286;106959;-39
2022/10/15 19:28:45;;;;;;;14.80;10.70;;;;;;;13.84;70.11;98557.72;421874;1296;97876;-41
2022/10/15 19:38:53;;;;;;;18.00;11.20;;;;;;;13.74;70.27;98558.75;422037;1295;110037;-40
2022/10/15 19:49:00;;;;;;;14.70;10.90;;;;;;;13.68;70.48;98561.23;421760;1295;107568;-40
2022/10/15 19:59:07;;;;;;;22.50;10.70;;;;;;;13.70;70.86;98568.42;421982;1289;96668;-41
2022/10/15 20:09:14;;;;;;;18.90;11.80;;;;;;;13.74;70.93;98575.97;421889;1298;107940;-41
2022/10/15 20:29:28;;;;;;;17.60;11.80;;;;;;;13.74;71.43;98589.80;421963;1296;212533;-40
2022/10/15 20:39:34;;;;;;;17.20;11.50;;;;;;;13.78;71.42;98600.52;421897;1296;110732;-41
2022/10/15 20:49:45;;;;;;;19.50;10.50;;;;;;;13.86;71.58;98604.20;422103;1296;109225;-41
2022/10/15 20:59:52;;;;;;;18.20;11.80;;;;;;;13.91;71.83;98613.17;422266;1288;98244;-41
2022/10/15 21:09:59;;;;;;;24.30;13.70;;;;;;;13.88;71.87;98618.88;421763;1282;111180;-41
2022/10/15 21:20:08;;;;;;;16.10;12.00;;;;;;;13.88;71.73;98619.16;421810;1293;109558;-40
2022/10/15 21:30:14;;;;;;;16.90;10.90;;;;;;;13.91;71.84;98632.84;421832;1292;97755;-40
2022/10/15 21:40:21;;;;;;;18.50;12.30;;;;;;;13.92;72.09;98637.15;422011;1281;107698;-40
2022/10/15 21:50:28;;;;;;;19.70;13.40;;;;;;;13.87;72.20;98643.17;421934;1295;97876;-39
2022/10/15 22:00:36;;;;;;;16.10;10.50;;;;;;;13.84;72.29;98639.74;421872;1295;97514;-39
2022/10/15 22:10:43;;;;;;;14.80;10.20;;;;;;;13.88;72.55;98649.71;421975;1296;107240;-39
2022/10/15 22:20:50;;;;;;;18.80;10.70;;;;;;;13.94;72.69;98650.46;422091;1295;97694;-39
2022/10/15 22:31:01;;;;;;;15.60;11.10;;;;;;;13.93;72.86;98658.63;422082;1296;111268;-40
2022/10/15 22:41:08;;;;;;;19.10;12.30;;;;;;;13.87;73.09;98666.13;421918;1296;106663;-39
2022/10/15 22:51:15;;;;;;;16.60;10.20;;;;;;;13.85;73.15;98658.56;421953;1288;97992;-41
2022/10/15 23:01:24;;;;;;;12.00;9.90;;;;;;;13.88;73.39;98666.36;421956;1295;106706;-40
2022/10/15 23:11:33;;;;;;;16.90;10.90;;;;;;;13.90;73.58;98674.61;421845;1287;97251;-40
2022/10/15 23:21:44;;;;;;;15.80;11.70;;;;;;;13.94;73.73;98688.73;422023;1296;109018;-40
2022/10/15 23:31:52;;;;;;;15.80;11.00;;;;;;;13.91;73.89;98692.02;422089;1281;107390;-40
2022/10/15 23:41:59;;;;;;;17.10;12.80;;;;;;;13.84;74.03;98691.09;422084;1298;97905;-40
2022/10/15 23:52:05;;;;;;;16.20;11.50;;;;;;;13.78;74.21;98702.25;421915;1288;110942;-41
